sensor_id;sensor_type;location;lat;lon;timestamp;pressure;altitude;pressure_sealevel;temperature;humidity
10167;BME280;62970;53.130;8.244;2023-02-23T00:02:09;101194.16;;;7.63;73.30
10167;BME280;62970;53.130;8.244;2023-02-23T00:04:44;101189.84;;;7.62;73.43
10167;BME280;62970;53.130;8.244;2023-02-23T00:07:15;101197.63;;;7.62;73.85
10167;BME280;62970;53.130;8.244;2023-02-23T00:09:54;101194.16;;;7.62;73.69
10167;BME280;62970;53.130;8.244;2023-02-23T00:15:09;101203.69;;;7.61;73.69
10167;BME280;62970;53.130;8.244;2023-02-23T00:17:43;101201.09;;;7.61;73.78
10167;BME280;62970;53.130;8.244;2023-02-23T00:20:20;101208.00;;;7.59;73.34
10167;BME280;62970;53.130;8.244;2023-02-23T00:22:54;101205.44;;;7.56;73.59
10167;BME280;62970;53.130;8.244;2023-02-23T00:25:31;101207.16;;;7.54;73.29
10167;BME280;62970;53.130;8.244;2023-02-23T00:28:04;101213.22;;;7.55;73.62
10167;BME280;62970;53.130;8.244;2023-02-23T00:30:50;101208.91;;;7.52;73.54
10167;BME280;62970;53.130;8.244;2023-02-23T00:33:22;101213.22;;;7.53;73.47
10167;BME280;62970;53.130;8.244;2023-02-23T00:36:04;101212.38;;;7.53;73.55
10167;BME280;62970;53.130;8.244;2023-02-23T00:38:34;101212.38;;;7.53;73.69
10167;BME280;62970;53.130;8.244;2023-02-23T00:41:07;101208.91;;;7.54;73.86
10167;BME280;62970;53.130;8.244;2023-02-23T00:43:39;101207.16;;;7.56;74.00
10167;BME280;62970;53.130;8.244;2023-02-23T00:46:13;101207.16;;;7.57;73.91
10167;BME280;62970;53.130;8.244;2023-02-23T00:48:45;101216.66;;;7.63;74.02
10167;BME280;62970;53.130;8.244;2023-02-23T00:51:18;101211.47;;;7.63;73.88
10167;BME280;62970;53.130;8.244;2023-02-23T00:53:48;101210.56;;;7.67;73.99
10167;BME280;62970;53.130;8.244;2023-02-23T00:56:18;101216.63;;;7.68;74.02
10167;BME280;62970;53.130;8.244;2023-02-23T00:58:48;101215.75;;;7.69;73.62
10167;BME280;62970;53.130;8.244;2023-02-23T01:01:19;101212.28;;;7.71;73.93
10167;BME280;62970;53.130;8.244;2023-02-23T01:03:52;101222.66;;;7.71;73.53
10167;BME280;62970;53.130;8.244;2023-02-23T01:14:32;101210.56;;;7.70;73.73
10167;BME280;62970;53.130;8.244;2023-02-23T01:27:43;101204.56;;;7.59;73.83
10167;BME280;62970;53.130;8.244;2023-02-23T01:30:24;101211.50;;;7.57;73.54
10167;BME280;62970;53.130;8.244;2023-02-23T01:32:55;101201.97;;;7.57;73.52
10167;BME280;62970;53.130;8.244;2023-02-23T01:35:28;101217.53;;;7.57;73.81
10167;BME280;62970;53.130;8.244;2023-02-23T01:38:15;101211.50;;;7.57;74.21
10167;BME280;62970;53.130;8.244;2023-02-23T01:40:48;101214.94;;;7.59;73.58
10167;BME280;62970;53.130;8.244;2023-02-23T01:43:22;101215.81;;;7.59;73.59
10167;BME280;62970;53.130;8.244;2023-02-23T01:45:56;101204.56;;;7.59;73.80
10167;BME280;62970;53.130;8.244;2023-02-23T01:48:28;101201.97;;;7.60;73.89
10167;BME280;62970;53.130;8.244;2023-02-23T01:51:05;101200.22;;;7.61;73.98
10167;BME280;62970;53.130;8.244;2023-02-23T01:53:42;101194.16;;;7.60;73.87
10167;BME280;62970;53.130;8.244;2023-02-23T01:56:21;101193.28;;;7.65;74.09
10167;BME280;62970;53.130;8.244;2023-02-23T01:58:57;101196.75;;;7.63;74.00
10167;BME280;62970;53.130;8.244;2023-02-23T02:01:31;101206.25;;;7.66;73.50
10167;BME280;62970;53.130;8.244;2023-02-23T02:04:06;101197.59;;;7.66;73.67
10167;BME280;62970;53.130;8.244;2023-02-23T02:06:44;101204.53;;;7.67;73.62
10167;BME280;62970;53.130;8.244;2023-02-23T02:09:21;101209.72;;;7.68;73.99
10167;BME280;62970;53.130;8.244;2023-02-23T02:11:55;101203.66;;;7.69;73.93
10167;BME280;62970;53.130;8.244;2023-02-23T02:14:31;101202.78;;;7.70;73.69
10167;BME280;62970;53.130;8.244;2023-02-23T02:17:14;101204.50;;;7.70;74.00
10167;BME280;62970;53.130;8.244;2023-02-23T02:26:43;101200.19;;;7.69;74.09
10167;BME280;62970;53.130;8.244;2023-02-23T02:30:03;101198.47;;;7.68;74.27
10167;BME280;62970;53.130;8.244;2023-02-23T02:33:06;101187.22;;;7.67;74.27
10167;BME280;62970;53.130;8.244;2023-02-23T02:39:06;101185.50;;;7.63;74.05
10167;BME280;62970;53.130;8.244;2023-02-23T02:41:56;101188.13;;;7.60;74.01
10167;BME280;62970;53.130;8.244;2023-02-23T02:57:30;101191.59;;;7.59;74.40
10167;BME280;62970;53.130;8.244;2023-02-23T03:00:07;101190.72;;;7.58;74.39
10167;BME280;62970;53.130;8.244;2023-02-23T03:02:49;101192.44;;;7.59;74.62
10167;BME280;62970;53.130;8.244;2023-02-23T03:05:40;101196.78;;;7.57;74.29
10167;BME280;62970;53.130;8.244;2023-02-23T03:08:36;101189.00;;;7.59;74.74
10167;BME280;62970;53.130;8.244;2023-02-23T03:11:19;101193.31;;;7.60;75.02
10167;BME280;62970;53.130;8.244;2023-02-23T03:14:18;101200.22;;;7.59;74.57
10167;BME280;62970;53.130;8.244;2023-02-23T03:17:02;101199.38;;;7.59;74.40
10167;BME280;62970;53.130;8.244;2023-02-23T03:19:53;101196.75;;;7.60;74.60
10167;BME280;62970;53.130;8.244;2023-02-23T03:22:43;101201.97;;;7.60;74.68
10167;BME280;62970;53.130;8.244;2023-02-23T03:25:33;101197.63;;;7.61;74.74
10167;BME280;62970;53.130;8.244;2023-02-23T03:28:29;101201.97;;;7.60;74.59
10167;BME280;62970;53.130;8.244;2023-02-23T03:31:19;101201.09;;;7.60;74.75
10167;BME280;62970;53.130;8.244;2023-02-23T03:34:14;101201.09;;;7.60;74.66
10167;BME280;62970;53.130;8.244;2023-02-23T03:37:03;101200.22;;;7.59;74.58
10167;BME280;62970;53.130;8.244;2023-02-23T03:39:55;101207.16;;;7.59;74.88
10167;BME280;62970;53.130;8.244;2023-02-23T03:42:42;101209.75;;;7.59;74.57
10167;BME280;62970;53.130;8.244;2023-02-23T03:45:25;101205.41;;;7.59;75.03
10167;BME280;62970;53.130;8.244;2023-02-23T03:48:12;101208.88;;;7.58;75.05
10167;BME280;62970;53.130;8.244;2023-02-23T03:51:01;101217.53;;;7.57;75.13
10167;BME280;62970;53.130;8.244;2023-02-23T03:53:50;101214.94;;;7.57;74.80
10167;BME280;62970;53.130;8.244;2023-02-23T03:56:42;101218.41;;;7.56;74.77
10167;BME280;62970;53.130;8.244;2023-02-23T03:59:29;101215.81;;;7.55;74.57
10167;BME280;62970;53.130;8.244;2023-02-23T04:02:15;101221.00;;;7.55;74.92
10167;BME280;62970;53.130;8.244;2023-02-23T04:07:47;101229.66;;;7.54;74.57
10167;BME280;62970;53.130;8.244;2023-02-23T04:10:33;101221.88;;;7.54;74.54
10167;BME280;62970;53.130;8.244;2023-02-23T04:16:12;101226.22;;;7.52;74.95
10167;BME280;62970;53.130;8.244;2023-02-23T04:18:46;101221.91;;;7.51;74.62
10167;BME280;62970;53.130;8.244;2023-02-23T04:21:22;101228.81;;;7.50;74.46
10167;BME280;62970;53.130;8.244;2023-02-23T04:23:52;101225.34;;;7.50;74.92
10167;BME280;62970;53.130;8.244;2023-02-23T04:26:23;101233.16;;;7.50;74.55
10167;BME280;62970;53.130;8.244;2023-02-23T04:28:54;101228.81;;;7.50;74.87
10167;BME280;62970;53.130;8.244;2023-02-23T04:31:23;101238.34;;;7.50;74.89
10167;BME280;62970;53.130;8.244;2023-02-23T04:33:56;101229.69;;;7.49;74.65
10167;BME280;62970;53.130;8.244;2023-02-23T04:36:31;101227.97;;;7.48;74.64
10167;BME280;62970;53.130;8.244;2023-02-23T04:39:03;101226.22;;;7.49;74.51
10167;BME280;62970;53.130;8.244;2023-02-23T04:41:35;101227.09;;;7.48;74.56
10167;BME280;62970;53.130;8.244;2023-02-23T04:44:06;101227.09;;;7.48;74.48
10167;BME280;62970;53.130;8.244;2023-02-23T04:59:48;101240.94;;;7.44;74.31
10167;BME280;62970;53.130;8.244;2023-02-23T05:02:23;101240.94;;;7.44;74.64
10167;BME280;62970;53.130;8.244;2023-02-23T05:04:55;101240.09;;;7.45;74.38
10167;BME280;62970;53.130;8.244;2023-02-23T05:07:38;101239.22;;;7.41;74.60
10167;BME280;62970;53.130;8.244;2023-02-23T05:10:12;101240.09;;;7.40;74.39
10167;BME280;62970;53.130;8.244;2023-02-23T05:12:44;101239.19;;;7.40;74.25
10167;BME280;62970;53.130;8.244;2023-02-23T05:15:17;101246.97;;;7.40;74.52
10167;BME280;62970;53.130;8.244;2023-02-23T05:17:47;101248.72;;;7.39;74.52
10167;BME280;62970;53.130;8.244;2023-02-23T05:20:19;101246.97;;;7.40;74.64
10167;BME280;62970;53.130;8.244;2023-02-23T05:22:54;101247.88;;;7.40;74.28
10167;BME280;62970;53.130;8.244;2023-02-23T05:25:26;101246.13;;;7.39;74.70
10167;BME280;62970;53.130;8.244;2023-02-23T05:27:56;101241.81;;;7.38;74.72
10167;BME280;62970;53.130;8.244;2023-02-23T05:30:29;101240.94;;;7.39;74.57
10167;BME280;62970;53.130;8.244;2023-02-23T05:32:58;101240.94;;;7.38;74.54
10167;BME280;62970;53.130;8.244;2023-02-23T05:35:28;101240.94;;;7.39;74.82
10167;BME280;62970;53.130;8.244;2023-02-23T05:38:00;101240.06;;;7.39;74.53
10167;BME280;62970;53.130;8.244;2023-02-23T05:40:31;101246.13;;;7.38;74.69
10167;BME280;62970;53.130;8.244;2023-02-23T05:43:00;101247.84;;;7.37;74.47
10167;BME280;62970;53.130;8.244;2023-02-23T05:45:41;101252.19;;;7.35;74.67
10167;BME280;62970;53.130;8.244;2023-02-23T05:48:12;101243.53;;;7.35;74.77
10167;BME280;62970;53.130;8.244;2023-02-23T05:50:44;101253.06;;;7.34;74.65
10167;BME280;62970;53.130;8.244;2023-02-23T05:53:15;101253.91;;;7.35;74.65
10167;BME280;62970;53.130;8.244;2023-02-23T05:55:44;101250.47;;;7.34;74.41
10167;BME280;62970;53.130;8.244;2023-02-23T05:58:14;101249.59;;;7.35;74.30
10167;BME280;62970;53.130;8.244;2023-02-23T06:00:46;101257.38;;;7.34;74.64
10167;BME280;62970;53.130;8.244;2023-02-23T06:03:20;101258.25;;;7.36;74.47
10167;BME280;62970;53.130;8.244;2023-02-23T06:05:54;101263.44;;;7.34;74.54
10167;BME280;62970;53.130;8.244;2023-02-23T06:08:26;101268.63;;;7.36;74.78
10167;BME280;62970;53.130;8.244;2023-02-23T06:10:55;101255.66;;;7.34;74.68
10167;BME280;62970;53.130;8.244;2023-02-23T06:13:24;101259.97;;;7.35;74.35
10167;BME280;62970;53.130;8.244;2023-02-23T06:15:59;101268.63;;;7.34;74.19
10167;BME280;62970;53.130;8.244;2023-02-23T06:18:30;101261.69;;;7.33;74.47
10167;BME280;62970;53.130;8.244;2023-02-23T06:21:00;101271.22;;;7.32;74.45
10167;BME280;62970;53.130;8.244;2023-02-23T06:23:33;101271.22;;;7.32;74.35
10167;BME280;62970;53.130;8.244;2023-02-23T06:26:05;101274.69;;;7.31;74.59
10167;BME280;62970;53.130;8.244;2023-02-23T06:28:37;101276.41;;;7.31;74.55
10167;BME280;62970;53.130;8.244;2023-02-23T06:31:16;101281.59;;;7.31;74.34
10167;BME280;62970;53.130;8.244;2023-02-23T06:33:46;101276.41;;;7.31;74.42
10167;BME280;62970;53.130;8.244;2023-02-23T06:36:16;101279.00;;;7.32;74.23
10167;BME280;62970;53.130;8.244;2023-02-23T06:38:46;101280.72;;;7.30;74.41
10167;BME280;62970;53.130;8.244;2023-02-23T06:41:16;101286.78;;;7.31;74.26
10167;BME280;62970;53.130;8.244;2023-02-23T06:43:50;101280.72;;;7.30;74.27
10167;BME280;62970;53.130;8.244;2023-02-23T06:46:22;101292.84;;;7.30;74.37
10167;BME280;62970;53.130;8.244;2023-02-23T06:48:54;101285.91;;;7.30;74.19
10167;BME280;62970;53.130;8.244;2023-02-23T06:51:26;101293.72;;;7.30;74.53
10167;BME280;62970;53.130;8.244;2023-02-23T06:53:57;101290.25;;;7.31;74.62
10167;BME280;62970;53.130;8.244;2023-02-23T06:56:27;101285.91;;;7.32;74.07
10167;BME280;62970;53.130;8.244;2023-02-23T06:59:00;101292.84;;;7.31;74.52
10167;BME280;62970;53.130;8.244;2023-02-23T07:01:40;101291.97;;;7.32;74.12
10167;BME280;62970;53.130;8.244;2023-02-23T07:04:16;101293.69;;;7.32;74.68
10167;BME280;62970;53.130;8.244;2023-02-23T07:06:46;101299.75;;;7.34;74.57
10167;BME280;62970;53.130;8.244;2023-02-23T07:09:16;101307.53;;;7.37;74.80
10167;BME280;62970;53.130;8.244;2023-02-23T07:11:46;101304.06;;;7.40;74.24
10167;BME280;62970;53.130;8.244;2023-02-23T07:14:19;101309.25;;;7.40;74.32
10167;BME280;62970;53.130;8.244;2023-02-23T07:16:54;101312.75;;;7.40;74.24
10167;BME280;62970;53.130;8.244;2023-02-23T07:19:24;101316.19;;;7.41;74.76
10167;BME280;62970;53.130;8.244;2023-02-23T07:21:53;101319.66;;;7.43;74.60
10167;BME280;62970;53.130;8.244;2023-02-23T07:24:22;101311.88;;;7.43;74.33
10167;BME280;62970;53.130;8.244;2023-02-23T07:26:53;101317.06;;;7.44;74.83
10167;BME280;62970;53.130;8.244;2023-02-23T07:29:23;101309.28;;;7.46;74.49
10167;BME280;62970;53.130;8.244;2023-02-23T07:31:56;101311.00;;;7.47;74.38
10167;BME280;62970;53.130;8.244;2023-02-23T07:34:27;101312.72;;;7.48;74.66
10167;BME280;62970;53.130;8.244;2023-02-23T07:36:56;101318.78;;;7.48;74.71
10167;BME280;62970;53.130;8.244;2023-02-23T07:39:28;101323.97;;;7.50;74.24
10167;BME280;62970;53.130;8.244;2023-02-23T07:41:58;101323.09;;;7.49;74.78
10167;BME280;62970;53.130;8.244;2023-02-23T07:44:29;101329.16;;;7.50;74.21
10167;BME280;62970;53.130;8.244;2023-02-23T07:47:00;101336.06;;;7.51;74.25
10167;BME280;62970;53.130;8.244;2023-02-23T07:49:30;101337.81;;;7.52;74.71
10167;BME280;62970;53.130;8.244;2023-02-23T07:51:59;101344.72;;;7.53;74.41
10167;BME280;62970;53.130;8.244;2023-02-23T07:54:31;101344.72;;;7.51;74.22
10167;BME280;62970;53.130;8.244;2023-02-23T07:57:00;101348.19;;;7.52;74.07
10167;BME280;62970;53.130;8.244;2023-02-23T07:59:29;101357.69;;;7.51;74.22
10167;BME280;62970;53.130;8.244;2023-02-23T08:02:01;101349.91;;;7.51;74.19
10167;BME280;62970;53.130;8.244;2023-02-23T08:04:33;101356.84;;;7.52;74.50
10167;BME280;62970;53.130;8.244;2023-02-23T08:07:04;101357.69;;;7.51;74.40
10167;BME280;62970;53.130;8.244;2023-02-23T08:09:39;101355.09;;;7.53;74.08
10167;BME280;62970;53.130;8.244;2023-02-23T08:12:08;101362.03;;;7.54;73.98
10167;BME280;62970;53.130;8.244;2023-02-23T08:14:38;101357.69;;;7.53;74.21
10167;BME280;62970;53.130;8.244;2023-02-23T08:17:13;101362.03;;;7.52;74.41
10167;BME280;62970;53.130;8.244;2023-02-23T08:19:45;101365.47;;;7.56;74.66
10167;BME280;62970;53.130;8.244;2023-02-23T08:22:16;101362.88;;;7.57;74.21
10167;BME280;62970;53.130;8.244;2023-02-23T08:24:48;101365.47;;;7.59;74.74
10167;BME280;62970;53.130;8.244;2023-02-23T08:27:18;101368.06;;;7.60;74.55
10167;BME280;62970;53.130;8.244;2023-02-23T08:29:47;101369.78;;;7.63;74.26
10167;BME280;62970;53.130;8.244;2023-02-23T08:32:26;101367.19;;;7.65;74.75
10167;BME280;62970;53.130;8.244;2023-02-23T08:34:58;101359.41;;;7.65;74.51
10167;BME280;62970;53.130;8.244;2023-02-23T08:37:30;101363.72;;;7.64;74.01
10167;BME280;62970;53.130;8.244;2023-02-23T08:39:59;101361.16;;;7.61;74.06
10167;BME280;62970;53.130;8.244;2023-02-23T08:42:29;101367.19;;;7.60;73.92
10167;BME280;62970;53.130;8.244;2023-02-23T08:44:58;101368.06;;;7.59;74.38
10167;BME280;62970;53.130;8.244;2023-02-23T08:47:33;101371.53;;;7.58;74.74
10167;BME280;62970;53.130;8.244;2023-02-23T08:50:06;101375.00;;;7.58;74.65
10167;BME280;62970;53.130;8.244;2023-02-23T08:52:36;101368.94;;;7.58;74.26
10167;BME280;62970;53.130;8.244;2023-02-23T08:55:06;101369.81;;;7.58;74.67
10167;BME280;62970;53.130;8.244;2023-02-23T08:57:39;101372.41;;;7.57;74.65
10167;BME280;62970;53.130;8.244;2023-02-23T09:00:12;101370.66;;;7.59;74.20
10167;BME280;62970;53.130;8.244;2023-02-23T09:02:45;101373.25;;;7.59;74.08
10167;BME280;62970;53.130;8.244;2023-02-23T09:05:16;101373.25;;;7.59;74.62
10167;BME280;62970;53.130;8.244;2023-02-23T09:07:46;101376.72;;;7.58;74.60
10167;BME280;62970;53.130;8.244;2023-02-23T09:10:18;101382.78;;;7.57;74.54
10167;BME280;62970;53.130;8.244;2023-02-23T09:12:52;101378.47;;;7.54;74.03
10167;BME280;62970;53.130;8.244;2023-02-23T09:15:21;101380.19;;;7.55;74.50
10167;BME280;62970;53.130;8.244;2023-02-23T09:17:54;101378.47;;;7.54;74.42
10167;BME280;62970;53.130;8.244;2023-02-23T09:20:24;101378.47;;;7.54;74.68
10167;BME280;62970;53.130;8.244;2023-02-23T09:22:53;101384.50;;;7.53;74.48
10167;BME280;62970;53.130;8.244;2023-02-23T09:25:23;101381.91;;;7.53;74.70
10167;BME280;62970;53.130;8.244;2023-02-23T09:27:55;101380.19;;;7.52;74.76
10167;BME280;62970;53.130;8.244;2023-02-23T09:30:26;101385.38;;;7.52;74.35
10167;BME280;62970;53.130;8.244;2023-02-23T09:32:58;101381.06;;;7.53;74.85
10167;BME280;62970;53.130;8.244;2023-02-23T09:35:27;101387.97;;;7.54;74.50
10167;BME280;62970;53.130;8.244;2023-02-23T09:38:02;101388.84;;;7.54;74.93
10167;BME280;62970;53.130;8.244;2023-02-23T09:40:44;101387.97;;;7.54;74.89
10167;BME280;62970;53.130;8.244;2023-02-23T09:43:18;101395.75;;;7.54;74.56
10167;BME280;62970;53.130;8.244;2023-02-23T09:45:54;101394.91;;;7.52;74.51
10167;BME280;62970;53.130;8.244;2023-02-23T09:48:34;101393.16;;;7.52;74.90
10167;BME280;62970;53.130;8.244;2023-02-23T09:51:06;101394.03;;;7.51;74.95
10167;BME280;62970;53.130;8.244;2023-02-23T09:53:41;101404.41;;;7.53;74.62
10167;BME280;62970;53.130;8.244;2023-02-23T09:56:20;101399.22;;;7.53;75.00
10167;BME280;62970;53.130;8.244;2023-02-23T09:58:55;101400.09;;;7.56;74.53
10167;BME280;62970;53.130;8.244;2023-02-23T10:01:51;101407.00;;;7.59;74.72
10167;BME280;62970;53.130;8.244;2023-02-23T10:04:30;101402.66;;;7.64;74.48
10167;BME280;62970;53.130;8.244;2023-02-23T10:07:09;101401.78;;;7.70;74.81
10167;BME280;62970;53.130;8.244;2023-02-23T10:09:55;101401.78;;;7.76;74.92
10167;BME280;62970;53.130;8.244;2023-02-23T10:12:37;101400.03;;;7.81;75.00
10167;BME280;62970;53.130;8.244;2023-02-23T10:15:22;101402.63;;;7.88;74.94
10167;BME280;62970;53.130;8.244;2023-02-23T10:18:02;101405.19;;;7.94;74.90
10167;BME280;62970;53.130;8.244;2023-02-23T10:20:45;101406.06;;;7.98;74.80
10167;BME280;62970;53.130;8.244;2023-02-23T10:23:25;101412.97;;;8.02;74.40
10167;BME280;62970;53.130;8.244;2023-02-23T10:25:58;101410.38;;;8.04;74.30
10167;BME280;62970;53.130;8.244;2023-02-23T10:28:35;101418.16;;;8.04;74.33
10167;BME280;62970;53.130;8.244;2023-02-23T10:31:25;101413.84;;;8.00;73.88
10167;BME280;62970;53.130;8.244;2023-02-23T10:34:01;101415.56;;;7.99;73.40
10167;BME280;62970;53.130;8.244;2023-02-23T10:36:40;101417.31;;;7.97;73.92
10167;BME280;62970;53.130;8.244;2023-02-23T10:39:12;101414.72;;;7.95;73.54
10167;BME280;62970;53.130;8.244;2023-02-23T10:41:46;101419.03;;;7.97;73.68
10167;BME280;62970;53.130;8.244;2023-02-23T10:44:19;101419.03;;;7.95;73.68
10167;BME280;62970;53.130;8.244;2023-02-23T10:46:53;101419.06;;;7.93;73.43
10167;BME280;62970;53.130;8.244;2023-02-23T10:49:31;101419.06;;;7.89;73.31
10167;BME280;62970;53.130;8.244;2023-02-23T10:52:13;101424.25;;;7.84;73.21
10167;BME280;62970;53.130;8.244;2023-02-23T10:54:47;101425.13;;;7.82;73.69
10167;BME280;62970;53.130;8.244;2023-02-23T10:57:24;101431.19;;;7.79;73.92
10167;BME280;62970;53.130;8.244;2023-02-23T11:00:23;101430.34;;;7.77;73.83
10167;BME280;62970;53.130;8.244;2023-02-23T11:02:56;101437.25;;;7.77;73.75
10167;BME280;62970;53.130;8.244;2023-02-23T11:05:42;101432.94;;;7.68;73.47
10167;BME280;62970;53.130;8.244;2023-02-23T11:08:34;101426.91;;;7.58;73.50
10167;BME280;62970;53.130;8.244;2023-02-23T11:11:17;101422.56;;;7.53;73.28
10167;BME280;62970;53.130;8.244;2023-02-23T11:13:50;101426.03;;;7.52;73.74
10167;BME280;62970;53.130;8.244;2023-02-23T11:19:17;101421.72;;;7.57;73.97
10167;BME280;62970;53.130;8.244;2023-02-23T11:21:51;101419.97;;;7.60;73.97
10167;BME280;62970;53.130;8.244;2023-02-23T11:24:26;101422.56;;;7.67;74.41
10167;BME280;62970;53.130;8.244;2023-02-23T11:27:01;101428.63;;;7.73;74.29
10167;BME280;62970;53.130;8.244;2023-02-23T11:29:34;101422.53;;;7.82;74.13
10167;BME280;62970;53.130;8.244;2023-02-23T11:32:15;101421.66;;;7.89;74.27
10167;BME280;62970;53.130;8.244;2023-02-23T11:34:47;101427.72;;;7.94;73.93
10167;BME280;62970;53.130;8.244;2023-02-23T11:37:36;101428.56;;;7.94;73.90
10167;BME280;62970;53.130;8.244;2023-02-23T11:40:24;101420.78;;;7.91;74.12
10167;BME280;62970;53.130;8.244;2023-02-23T11:43:05;101425.97;;;7.88;73.54
10167;BME280;62970;53.130;8.244;2023-02-23T11:45:44;101430.31;;;7.85;74.15
10167;BME280;62970;53.130;8.244;2023-02-23T11:50:53;101419.09;;;7.77;73.49
10167;BME280;62970;53.130;8.244;2023-02-23T11:53:28;101420.84;;;7.67;73.14
10167;BME280;62970;53.130;8.244;2023-02-23T11:56:04;101419.97;;;7.54;73.07
10167;BME280;62970;53.130;8.244;2023-02-23T11:58:42;101422.59;;;7.44;72.94
10167;BME280;62970;53.130;8.244;2023-02-23T12:01:20;101426.00;;;7.34;73.64
10167;BME280;62970;53.130;8.244;2023-02-23T12:03:53;101422.56;;;7.27;73.34
10167;BME280;62970;53.130;8.244;2023-02-23T12:06:28;101426.88;;;7.20;73.80
10167;BME280;62970;53.130;8.244;2023-02-23T12:09:08;101432.03;;;7.14;73.75
10167;BME280;62970;53.130;8.244;2023-02-23T12:11:48;101431.16;;;7.09;73.49
10167;BME280;62970;53.130;8.244;2023-02-23T12:14:28;101438.06;;;7.09;74.22
10167;BME280;62970;53.130;8.244;2023-02-23T12:17:03;101428.56;;;7.08;74.07
10167;BME280;62970;53.130;8.244;2023-02-23T12:19:42;101443.25;;;7.10;74.19
10167;BME280;62970;53.130;8.244;2023-02-23T12:22:17;101432.88;;;7.12;74.30
10167;BME280;62970;53.130;8.244;2023-02-23T12:24:54;101429.44;;;7.11;74.05
10167;BME280;62970;53.130;8.244;2023-02-23T12:30:21;101432.88;;;7.18;74.16
10167;BME280;62970;53.130;8.244;2023-02-23T12:32:55;101426.88;;;7.20;74.13
10167;BME280;62970;53.130;8.244;2023-02-23T12:35:43;101427.75;;;7.24;74.24
10167;BME280;62970;53.130;8.244;2023-02-23T12:38:25;101418.22;;;7.27;74.70
10167;BME280;62970;53.130;8.244;2023-02-23T12:41:05;101426.00;;;7.37;74.81
10167;BME280;62970;53.130;8.244;2023-02-23T12:43:47;101421.72;;;7.43;74.61
10167;BME280;62970;53.130;8.244;2023-02-23T12:46:23;101422.59;;;7.51;75.03
10167;BME280;62970;53.130;8.244;2023-02-23T12:49:04;101419.97;;;7.56;74.78
10167;BME280;62970;53.130;8.244;2023-02-23T12:51:43;101425.16;;;7.63;74.87
10167;BME280;62970;53.130;8.244;2023-02-23T12:54:16;101423.44;;;7.67;74.48
10167;BME280;62970;53.130;8.244;2023-02-23T12:56:58;101426.88;;;7.71;74.71
10167;BME280;62970;53.130;8.244;2023-02-23T13:00:25;101430.34;;;7.74;74.47
10167;BME280;62970;53.130;8.244;2023-02-23T13:03:25;101438.13;;;7.77;74.16
10167;BME280;62970;53.130;8.244;2023-02-23T13:06:05;101424.28;;;7.81;74.12
10167;BME280;62970;53.130;8.244;2023-02-23T13:09:01;101423.41;;;7.84;74.11
10167;BME280;62970;53.130;8.244;2023-02-23T13:12:00;101420.78;;;7.90;73.76
10167;BME280;62970;53.130;8.244;2023-02-23T13:14:41;101418.19;;;7.96;73.73
10167;BME280;62970;53.130;8.244;2023-02-23T13:17:32;101416.44;;;8.03;73.41
10167;BME280;62970;53.130;8.244;2023-02-23T13:20:16;101422.47;;;8.09;73.02
10167;BME280;62970;53.130;8.244;2023-02-23T13:22:57;101422.44;;;8.14;72.99
10167;BME280;62970;53.130;8.244;2023-02-23T13:25:44;101422.44;;;8.17;72.19
10167;BME280;62970;53.130;8.244;2023-02-23T13:28:33;101426.75;;;8.22;72.56
10167;BME280;62970;53.130;8.244;2023-02-23T13:31:19;101418.94;;;8.28;72.43
10167;BME280;62970;53.130;8.244;2023-02-23T13:33:55;101416.31;;;8.36;72.64
10167;BME280;62970;53.130;8.244;2023-02-23T13:36:31;101415.41;;;8.43;72.37
10167;BME280;62970;53.130;8.244;2023-02-23T13:42:20;101417.13;;;8.47;71.50
10167;BME280;62970;53.130;8.244;2023-02-23T13:45:21;101417.13;;;8.44;71.28
10167;BME280;62970;53.130;8.244;2023-02-23T13:47:56;101418.88;;;8.42;71.29
10167;BME280;62970;53.130;8.244;2023-02-23T13:50:41;101422.34;;;8.43;71.19
10167;BME280;62970;53.130;8.244;2023-02-23T13:53:42;101418.00;;;8.45;71.27
10167;BME280;62970;53.130;8.244;2023-02-23T13:56:17;101417.97;;;8.48;71.21
10167;BME280;62970;53.130;8.244;2023-02-23T13:58:54;101411.03;;;8.50;71.03
10167;BME280;62970;53.130;8.244;2023-02-23T14:01:31;101418.81;;;8.53;71.10
10167;BME280;62970;53.130;8.244;2023-02-23T14:04:07;101412.75;;;8.57;70.89
10167;BME280;62970;53.130;8.244;2023-02-23T14:06:53;101417.91;;;8.60;70.98
10167;BME280;62970;53.130;8.244;2023-02-23T14:09:29;101415.28;;;8.65;70.60
10167;BME280;62970;53.130;8.244;2023-02-23T14:12:16;101424.81;;;8.69;70.92
10167;BME280;62970;53.130;8.244;2023-02-23T14:14:56;101423.91;;;8.73;70.44
10167;BME280;62970;53.130;8.244;2023-02-23T14:17:55;101425.66;;;8.72;70.70
10167;BME280;62970;53.130;8.244;2023-02-23T14:20:45;101410.94;;;8.71;70.31
10167;BME280;62970;53.130;8.244;2023-02-23T14:23:34;101412.66;;;8.71;69.77
10167;BME280;62970;53.130;8.244;2023-02-23T14:29:25;101409.19;;;8.70;70.38
10167;BME280;62970;53.130;8.244;2023-02-23T14:32:02;101407.44;;;8.75;69.94
10167;BME280;62970;53.130;8.244;2023-02-23T14:34:51;101416.09;;;8.76;70.03
10167;BME280;62970;53.130;8.244;2023-02-23T14:37:30;101416.09;;;8.76;70.25
10167;BME280;62970;53.130;8.244;2023-02-23T14:40:14;101417.84;;;8.74;69.67
10167;BME280;62970;53.130;8.244;2023-02-23T14:42:49;101408.34;;;8.70;69.81
10167;BME280;62970;53.130;8.244;2023-02-23T14:45:22;101413.56;;;8.65;69.27
10167;BME280;62970;53.130;8.244;2023-02-23T14:47:57;101411.84;;;8.61;69.73
10167;BME280;62970;53.130;8.244;2023-02-23T14:50:33;101417.94;;;8.58;69.35
10167;BME280;62970;53.130;8.244;2023-02-23T14:53:15;101419.69;;;8.55;69.30
10167;BME280;62970;53.130;8.244;2023-02-23T14:55:49;101413.63;;;8.50;69.30
10167;BME280;62970;53.130;8.244;2023-02-23T14:58:22;101420.59;;;8.45;69.31
10167;BME280;62970;53.130;8.244;2023-02-23T15:00:54;101418.88;;;8.39;69.02
10167;BME280;62970;53.130;8.244;2023-02-23T15:03:26;101417.19;;;8.35;68.95
10167;BME280;62970;53.130;8.244;2023-02-23T15:05:58;101417.19;;;8.29;69.62
10167;BME280;62970;53.130;8.244;2023-02-23T15:08:29;101418.94;;;8.25;69.24
10167;BME280;62970;53.130;8.244;2023-02-23T15:11:06;101415.53;;;8.16;68.89